Agana Heights, GU

11:28 AM ChST on August 22, 2014 (GMT +1000)
Andersen Air Force Base | Change Station
CLOSE
Current Station
Airport
Location: Andersen AFB,
Elevation: 614 ft
Nearby Weather Stations

Elev 614 ft 13.58 °N, 144.93 °E | Updated 25 minutes ago

Overcast
Overcast
82 °F
Feels Like 91 °F
N
5
Wind Variable Wind from NNW

Today
High -- | Low -- °F
--% Chance of Precip.
Yesterday
High -- | Low -- °F
Precip. -- in
6:08 AM 6:38 PM
Waning Crescent, 11% visible
Pressure 29.89 in
Visibility 10.0 miles
Clouds Mostly Cloudy 1400 ft
Overcast 2300 ft
Heat Index 91 °F
Dew Point 77 °F
Humidity 84%
Rainfall 0.36 in
Snow Depth Not available.
UV 5 out of 12
Pollen Not available.
Air Quality Not available.
Flu Activity Not available.
SPECI PGUA 220103Z AUTO 34004KT 10SM BKN014 OVC023 28/25 A2989 RMK AO2 $

More Conditions Fewer Conditions

Pressure 29.89 in
Visibility 10.0 miles
Clouds Mostly Cloudy 1400 ft
Overcast 2300 ft
Heat Index 91 °F
Dew Point 77 °F
Humidity 84%
Rainfall 0.36 in
Snow Depth Not available.
UV 5 out of 12
Pollen Not available.
Air Quality Not available.
Flu Activity Not available.
SPECI PGUA 220103Z AUTO 34004KT 10SM BKN014 OVC023 28/25 A2989 RMK AO2 $

More Conditions Fewer Conditions

10-Day Weather Forecast

Almanac

Astronomy

Aug. 22, 2014 Rise Set
Actual Time 6:08 AM ChST 6:38 PM ChST
Civil Twilight 5:47 AM ChST 7:00 PM ChST
Nautical Twilight 5:21 AM ChST 7:26 PM ChST
Astronomical Twilight 4:55 AM ChST 7:51 PM ChST
Moon 3:12 AM ChST 4:09 PM ChST
Length of Visible Light 13h 13m
Length of Day
12h 29m
Tomorrow will be 0m 42s shorter.
Waning Crescent, 11% of the Moon is Illuminated
Aug 21
Waning Crescent
Aug 25
New
Sep 2
First Quarter
Sep 8
Full
Sep 15
Last Quarter

Community

WunderPhotos

Upload Photos

1,746,102 photos uploaded!

Nearby

Snow Depth

Station Depth Elevation
No new snow has been reported.

Earthquake Activity

City Distance Mag. Time & Date
No recent earthquake activity has been reported nearby.
Minimum magnitude displayed is 2.5.

Coastal Water Temperatures

Place Temperature
No Stations Reporting

Nearby Weather Stations